createdAt,value
2023-04-10T00:00:15.376Z,101165.41
2023-04-10T00:03:04.899Z,101168.89
2023-04-10T00:05:34.012Z,101172.39
2023-04-10T00:08:03.070Z,101170.98
2023-04-10T00:10:32.753Z,101167.25
2023-04-10T00:13:03.098Z,101167.82
2023-04-10T00:15:32.075Z,101168.05
2023-04-10T00:18:00.979Z,101161.86
2023-04-10T00:20:30.030Z,101162.98
2023-04-10T00:22:59.036Z,101159.81
2023-04-10T00:25:28.090Z,101159.17
2023-04-10T00:27:57.103Z,101154.42
2023-04-10T00:30:26.418Z,101148.38
2023-04-10T00:32:55.539Z,101146.54
2023-04-10T00:35:24.585Z,101140.58
2023-04-10T00:37:54.073Z,101143.52
2023-04-10T00:40:23.137Z,101138.68
2023-04-10T00:42:52.305Z,101136.61
2023-04-10T00:45:21.769Z,101131.83
2023-04-10T00:47:51.424Z,101130.04
2023-04-10T00:50:21.843Z,101127.31
2023-04-10T00:52:51.585Z,101125.27
2023-04-10T00:55:20.690Z,101119.96
2023-04-10T00:57:50.101Z,101122.38
2023-04-10T01:00:19.154Z,101122.70
2023-04-10T01:02:48.231Z,101120.58
2023-04-10T01:05:17.505Z,101117.83
2023-04-10T01:08:02.538Z,101115.44
2023-04-10T01:10:38.519Z,101114.52
2023-04-10T01:13:16.464Z,101113.57
2023-04-10T01:15:52.808Z,101106.39
2023-04-10T01:18:29.418Z,101103.91
2023-04-10T01:21:02.465Z,101099.20
2023-04-10T01:24:00.636Z,101097.77
2023-04-10T01:26:42.847Z,101101.45
2023-04-10T01:29:14.813Z,101099.23
2023-04-10T01:31:50.767Z,101101.84
2023-04-10T01:34:20.619Z,101102.63
2023-04-10T01:36:53.661Z,101102.91
2023-04-10T01:39:23.891Z,101102.92
2023-04-10T01:41:54.401Z,101103.86
2023-04-10T01:44:27.846Z,101103.73
2023-04-10T01:46:58.638Z,101100.77
2023-04-10T01:49:30.458Z,101098.64
2023-04-10T01:52:01.654Z,101093.77
2023-04-10T01:54:32.781Z,101095.97
2023-04-10T01:57:03.765Z,101091.94
2023-04-10T01:59:33.031Z,101088.33
2023-04-10T02:02:02.647Z,101087.36
2023-04-10T02:04:31.801Z,101087.23
2023-04-10T02:07:04.607Z,101083.59
2023-04-10T02:09:58.277Z,101083.48
2023-04-10T02:12:31.931Z,101082.70
2023-04-10T02:15:03.175Z,101085.59
2023-04-10T02:17:33.913Z,101084.88
2023-04-10T02:20:05.402Z,101084.15
2023-04-10T02:22:36.094Z,101084.48
2023-04-10T02:25:08.132Z,101085.91
2023-04-10T02:27:37.827Z,101090.20
2023-04-10T02:30:09.074Z,101086.61
2023-04-10T02:32:38.073Z,101088.92
2023-04-10T02:35:08.028Z,101087.50
2023-04-10T02:37:37.142Z,101088.66
2023-04-10T02:40:08.580Z,101090.98
2023-04-10T02:42:37.468Z,101091.29
2023-04-10T02:45:08.979Z,101088.92
2023-04-10T02:47:38.075Z,101084.70
2023-04-10T02:50:08.537Z,101084.23
2023-04-10T02:52:37.622Z,101081.88
2023-04-10T02:55:08.159Z,101081.42
2023-04-10T02:57:37.266Z,101081.73
2023-04-10T03:00:08.946Z,101079.91
2023-04-10T03:02:38.055Z,101076.73
2023-04-10T03:05:08.973Z,101079.79
2023-04-10T03:07:37.925Z,101082.19
2023-04-10T03:10:09.284Z,101082.58
2023-04-10T03:12:38.145Z,101083.91
2023-04-10T03:15:09.416Z,101082.31
2023-04-10T03:17:38.294Z,101081.59
2023-04-10T03:20:10.868Z,101082.39
2023-04-10T03:22:40.566Z,101082.70
2023-04-10T03:25:10.745Z,101081.86
2023-04-10T03:27:40.632Z,101079.23
2023-04-10T03:30:12.137Z,101078.65
2023-04-10T03:32:42.444Z,101085.67
2023-04-10T03:35:11.847Z,101082.60
2023-04-10T03:37:42.075Z,101087.30
2023-04-10T03:40:12.192Z,101090.59
2023-04-10T03:42:41.095Z,101090.45
2023-04-10T03:45:12.528Z,101089.02
2023-04-10T03:47:41.683Z,101089.16
2023-04-10T03:50:11.702Z,101093.42
2023-04-10T03:52:41.231Z,101098.80
2023-04-10T03:55:10.679Z,101096.36
2023-04-10T03:57:39.635Z,101100.13
2023-04-10T04:00:12.138Z,101103.21
2023-04-10T04:02:41.423Z,101103.02
2023-04-10T04:05:10.854Z,101104.10
2023-04-10T04:07:39.959Z,101093.67
2023-04-10T04:10:09.926Z,101104.06
2023-04-10T04:12:38.955Z,101100.55
2023-04-10T04:15:10.398Z,101098.98
2023-04-10T04:17:40.022Z,101098.88
2023-04-10T04:20:11.264Z,101106.11
2023-04-10T04:22:40.952Z,101103.69
2023-04-10T04:25:10.969Z,101100.07
2023-04-10T04:27:40.024Z,101101.84
2023-04-10T04:30:11.152Z,101098.42
2023-04-10T04:32:40.220Z,101103.89
2023-04-10T04:35:10.827Z,101102.35
2023-04-10T04:37:40.226Z,101100.44
2023-04-10T04:40:11.237Z,101102.18
2023-04-10T04:42:40.315Z,101102.20
2023-04-10T04:45:11.284Z,101108.96
2023-04-10T04:47:40.186Z,101108.98
2023-04-10T04:50:11.162Z,101109.02
2023-04-10T04:52:40.175Z,101106.27
2023-04-10T04:55:10.507Z,101109.16
2023-04-10T04:57:39.498Z,101109.61
2023-04-10T05:00:11.089Z,101110.14
2023-04-10T05:02:40.141Z,101109.55
2023-04-10T05:05:10.108Z,101107.20
2023-04-10T05:07:39.070Z,101109.11
2023-04-10T05:10:09.973Z,101108.93
2023-04-10T05:12:41.294Z,101110.05
2023-04-10T05:15:11.407Z,101108.55
2023-04-10T05:17:40.801Z,101104.02
2023-04-10T05:20:12.329Z,101105.13
2023-04-10T05:22:41.327Z,101098.23
2023-04-10T05:25:10.712Z,101104.73
2023-04-10T05:27:39.847Z,101103.54
2023-04-10T05:30:11.252Z,101101.48
2023-04-10T05:32:40.187Z,101092.69
2023-04-10T05:35:10.294Z,101098.21
2023-04-10T05:37:39.319Z,101098.45
2023-04-10T05:40:10.543Z,101102.15
2023-04-10T05:42:39.464Z,101099.19
2023-04-10T05:45:09.877Z,101101.95
2023-04-10T05:47:38.949Z,101100.06
2023-04-10T05:50:09.596Z,101093.41
2023-04-10T05:52:38.677Z,101101.63
2023-04-10T05:55:10.028Z,101103.01
2023-04-10T05:57:40.135Z,101102.36
2023-04-10T06:00:11.637Z,101101.65
2023-04-10T06:02:40.957Z,101102.65
2023-04-10T06:05:10.750Z,101100.89
2023-04-10T06:07:40.005Z,101095.77
2023-04-10T06:10:11.356Z,101097.27
2023-04-10T06:12:40.383Z,101096.83
2023-04-10T06:15:11.366Z,101093.46
2023-04-10T06:17:43.584Z,101095.89
2023-04-10T06:20:13.631Z,101095.58
2023-04-10T06:22:42.631Z,101092.36
2023-04-10T06:25:11.797Z,101092.63
2023-04-10T06:27:40.689Z,101092.09
2023-04-10T06:30:11.504Z,101088.47
2023-04-10T06:32:41.249Z,101088.52
2023-04-10T06:35:11.060Z,101089.04
2023-04-10T06:37:39.924Z,101088.72
2023-04-10T06:40:11.807Z,101085.19
2023-04-10T06:42:41.314Z,101085.84
2023-04-10T06:45:11.600Z,101089.27
2023-04-10T06:47:41.076Z,101089.85
2023-04-10T06:50:11.044Z,101090.48
2023-04-10T06:52:40.043Z,101093.95
2023-04-10T06:55:10.233Z,101086.70
2023-04-10T06:57:39.310Z,101094.67
2023-04-10T07:00:10.616Z,101094.48
2023-04-10T07:02:39.584Z,101092.23
2023-04-10T07:05:10.445Z,101096.52
2023-04-10T07:07:39.452Z,101101.75
2023-04-10T07:10:10.423Z,101097.38
2023-04-10T07:12:39.355Z,101098.74
2023-04-10T07:15:11.835Z,101101.69
2023-04-10T07:17:40.813Z,101097.69
2023-04-10T07:20:11.895Z,101098.40
2023-04-10T07:22:41.119Z,101098.42
2023-04-10T07:25:11.346Z,101102.36
2023-04-10T07:27:40.681Z,101100.35
2023-04-10T07:30:13.397Z,101101.68
2023-04-10T07:32:42.873Z,101097.33
2023-04-10T07:35:11.916Z,101098.81
2023-04-10T07:37:41.384Z,101094.73
2023-04-10T07:40:12.018Z,101094.65
2023-04-10T07:42:40.936Z,101084.92
2023-04-10T07:45:11.792Z,101086.42
2023-04-10T07:47:40.960Z,101085.20
2023-04-10T07:50:10.804Z,101085.24
2023-04-10T07:52:39.744Z,101089.58
2023-04-10T07:55:09.952Z,101088.41
2023-04-10T07:57:40.087Z,101088.83
2023-04-10T08:00:13.690Z,101083.33
2023-04-10T08:02:42.895Z,101087.53
2023-04-10T08:05:12.187Z,101085.60
2023-04-10T08:07:41.192Z,101083.03
2023-04-10T08:10:11.910Z,101088.25
2023-04-10T08:12:40.819Z,101086.20
2023-04-10T08:15:11.254Z,101076.69
2023-04-10T08:17:40.121Z,101078.89
2023-04-10T08:20:12.699Z,101073.71
2023-04-10T08:22:41.760Z,101080.23
2023-04-10T08:25:11.249Z,101073.14
2023-04-10T08:27:40.182Z,101066.39
2023-04-10T08:30:11.176Z,101070.95
2023-04-10T08:32:40.235Z,101069.02
2023-04-10T08:35:10.375Z,101070.20
2023-04-10T08:37:39.377Z,101065.73
2023-04-10T08:40:10.261Z,101063.72
2023-04-10T08:42:39.411Z,101062.11
2023-04-10T08:45:10.858Z,101062.16
2023-04-10T08:47:43.810Z,101059.09
2023-04-10T08:50:16.033Z,101056.94
2023-04-10T08:52:46.942Z,101050.53
2023-04-10T08:55:15.914Z,101042.95
2023-04-10T08:57:54.140Z,101043.05
2023-04-10T09:00:30.995Z,101043.90
2023-04-10T09:03:00.284Z,101039.89
2023-04-10T09:05:30.652Z,101042.21
2023-04-10T09:07:59.741Z,101041.58
2023-04-10T09:10:29.032Z,101039.88
2023-04-10T09:12:57.954Z,101036.47
2023-04-10T09:15:26.906Z,101036.62
2023-04-10T09:18:00.917Z,101034.31
2023-04-10T09:20:32.779Z,101031.31
2023-04-10T09:23:01.809Z,101025.45
2023-04-10T09:25:33.398Z,101024.02
2023-04-10T09:28:04.300Z,101021.85
2023-04-10T09:30:38.747Z,101021.05
2023-04-10T09:33:24.392Z,101019.23
2023-04-10T09:35:53.355Z,101017.05
2023-04-10T09:38:23.324Z,101014.59
2023-04-10T09:40:53.757Z,101007.94
2023-04-10T09:43:25.435Z,101000.51
2023-04-10T09:45:56.737Z,100999.95
2023-04-10T09:48:26.871Z,100992.65
2023-04-10T09:50:57.127Z,100991.32
2023-04-10T09:53:26.943Z,100985.05
2023-04-10T09:55:57.588Z,100988.21
2023-04-10T09:58:27.510Z,100988.42
2023-04-10T10:00:56.794Z,100983.83
2023-04-10T10:03:26.557Z,100982.38
2023-04-10T10:05:56.016Z,100978.98
2023-04-10T10:08:25.908Z,100975.73
2023-04-10T10:10:57.256Z,100969.21
2023-04-10T10:13:34.734Z,100960.55
2023-04-10T10:16:12.058Z,100961.52
2023-04-10T10:18:47.538Z,100961.29
2023-04-10T10:21:18.917Z,100967.21
2023-04-10T10:23:53.266Z,100960.67
2023-04-10T10:26:23.917Z,100956.06
2023-04-10T10:28:53.936Z,100952.78
2023-04-10T10:31:24.828Z,100949.43
2023-04-10T10:33:54.139Z,100945.45
2023-04-10T10:36:24.206Z,100942.66
2023-04-10T10:39:11.175Z,100933.27
2023-04-10T10:41:46.965Z,100932.19
2023-04-10T10:44:21.525Z,100929.35
2023-04-10T10:46:58.763Z,100926.98
2023-04-10T10:49:52.875Z,100922.76
2023-04-10T10:52:39.954Z,100920.36
2023-04-10T10:55:36.562Z,100918.34
2023-04-10T10:58:07.053Z,100917.98
2023-04-10T11:01:10.702Z,100908.21
2023-04-10T11:03:40.079Z,100910.68
2023-04-10T11:06:12.170Z,100901.02
2023-04-10T11:08:46.307Z,100894.74
2023-04-10T11:11:19.764Z,100888.58
2023-04-10T11:14:19.613Z,100892.06
2023-04-10T11:16:48.642Z,100884.38
2023-04-10T11:19:21.725Z,100885.05
2023-04-10T11:22:06.916Z,100879.85
2023-04-10T11:25:00.169Z,100880.00
2023-04-10T11:27:48.891Z,100875.60
2023-04-10T11:30:37.318Z,100875.44
2023-04-10T11:33:06.732Z,100872.48
2023-04-10T11:35:36.060Z,100864.05
2023-04-10T11:38:16.350Z,100859.27
2023-04-10T11:41:06.431Z,100866.10
2023-04-10T11:43:35.525Z,100858.76
2023-04-10T11:46:08.726Z,100853.23
2023-04-10T11:48:38.148Z,100856.83
2023-04-10T11:51:11.738Z,100853.41
2023-04-10T11:53:41.788Z,100849.30
2023-04-10T11:56:18.752Z,100840.98
2023-04-10T11:58:50.322Z,100839.65
2023-04-10T12:01:22.430Z,100840.00
2023-04-10T12:03:51.848Z,100834.09
2023-04-10T12:06:22.007Z,100827.23
2023-04-10T12:08:51.220Z,100819.83
2023-04-10T12:11:21.865Z,100817.12
2023-04-10T12:13:53.185Z,100815.26
2023-04-10T12:16:23.008Z,100814.11
2023-04-10T12:18:53.145Z,100811.59
2023-04-10T12:21:22.430Z,100805.38
2023-04-10T12:23:52.443Z,100799.05
2023-04-10T12:26:22.019Z,100795.34
2023-04-10T12:28:56.882Z,100798.30
2023-04-10T12:31:30.822Z,100791.15
2023-04-10T12:34:01.649Z,100786.92
2023-04-10T12:36:33.769Z,100784.08
2023-04-10T12:39:04.772Z,100783.65
2023-04-10T12:41:35.420Z,100778.46
2023-04-10T12:44:12.229Z,100768.36
2023-04-10T12:46:42.441Z,100766.00
2023-04-10T12:49:13.089Z,100762.94
2023-04-10T12:51:46.563Z,100760.75
2023-04-10T12:54:30.095Z,100762.38
2023-04-10T12:56:59.972Z,100764.36
2023-04-10T12:59:29.094Z,100759.35
2023-04-10T13:01:58.217Z,100753.02
2023-04-10T13:04:28.978Z,100749.69
2023-04-10T13:06:57.972Z,100754.96
2023-04-10T13:09:26.882Z,100752.08
2023-04-10T13:11:57.080Z,100749.45
2023-04-10T13:14:26.548Z,100744.48
2023-04-10T13:16:55.419Z,100742.71
2023-04-10T13:19:24.357Z,100744.73
2023-04-10T13:21:53.409Z,100737.77
2023-04-10T13:24:22.858Z,100735.21
2023-04-10T13:26:51.795Z,100736.02
2023-04-10T13:29:20.719Z,100738.00
2023-04-10T13:31:50.219Z,100738.11
2023-04-10T13:34:19.257Z,100737.66
2023-04-10T13:36:48.393Z,100738.40
2023-04-10T13:39:18.032Z,100734.89
2023-04-10T13:41:47.117Z,100733.99
2023-04-10T13:44:16.155Z,100734.06
2023-04-10T13:46:45.126Z,100732.70
2023-04-10T13:49:16.886Z,100729.99
2023-04-10T13:51:46.917Z,100731.80
2023-04-10T13:54:16.811Z,100735.20
2023-04-10T13:56:45.791Z,100735.02
2023-04-10T13:59:15.255Z,100734.59
2023-04-10T14:01:44.291Z,100734.52
2023-04-10T14:04:13.288Z,100721.75
2023-04-10T14:06:42.443Z,100725.27
2023-04-10T14:09:11.451Z,100713.28
2023-04-10T14:11:40.500Z,100713.92
2023-04-10T14:14:09.541Z,100716.10
2023-04-10T14:16:38.667Z,100713.11
2023-04-10T14:19:07.744Z,100706.73
2023-04-10T14:21:36.761Z,100706.59
2023-04-10T14:24:06.012Z,100706.63
2023-04-10T14:26:34.942Z,100691.73
2023-04-10T14:29:04.346Z,100696.52
2023-04-10T14:31:33.720Z,100700.62
2023-04-10T14:34:03.612Z,100699.80
2023-04-10T14:36:32.881Z,100707.36
2023-04-10T14:39:02.533Z,100709.46
2023-04-10T14:41:31.529Z,100713.04
2023-04-10T14:44:00.485Z,100710.17
2023-04-10T14:46:29.460Z,100716.52
2023-04-10T14:48:58.457Z,100710.93
2023-04-10T14:51:27.314Z,100714.36
2023-04-10T14:53:56.521Z,100713.58
2023-04-10T14:56:25.700Z,100709.48
2023-04-10T14:58:54.638Z,100709.34
2023-04-10T15:01:23.637Z,100709.34
2023-04-10T15:03:53.056Z,100706.02
2023-04-10T15:06:22.389Z,100705.07
2023-04-10T15:08:51.362Z,100705.29
2023-04-10T15:11:20.329Z,100701.96
2023-04-10T15:13:49.433Z,100701.64
2023-04-10T15:16:18.466Z,100694.71
2023-04-10T15:18:48.639Z,100692.94
2023-04-10T15:21:18.157Z,100693.88
2023-04-10T15:23:47.252Z,100687.79
2023-04-10T15:26:16.933Z,100687.11
2023-04-10T15:28:46.122Z,100686.79
2023-04-10T15:31:15.230Z,100682.15
2023-04-10T15:33:44.257Z,100688.27
2023-04-10T15:36:13.286Z,100685.50
2023-04-10T15:38:42.345Z,100685.13
2023-04-10T15:41:12.990Z,100685.08
2023-04-10T15:43:42.330Z,100688.97
2023-04-10T15:46:11.342Z,100683.73
2023-04-10T15:48:40.358Z,100677.29
2023-04-10T15:51:09.531Z,100679.89
2023-04-10T15:53:38.497Z,100676.50
2023-04-10T15:56:08.844Z,100670.43
2023-04-10T15:58:37.811Z,100667.95
2023-04-10T16:01:07.674Z,100666.76
2023-04-10T16:03:36.768Z,100668.33
2023-04-10T16:06:07.808Z,100663.95
2023-04-10T16:08:36.818Z,100662.50
2023-04-10T16:11:06.578Z,100660.73
2023-04-10T16:13:35.493Z,100658.20
2023-04-10T16:16:05.509Z,100659.10
2023-04-10T16:18:34.553Z,100655.27
2023-04-10T16:21:07.701Z,100657.99
2023-04-10T16:23:36.573Z,100651.13
2023-04-10T16:26:06.307Z,100654.21
2023-04-10T16:28:35.427Z,100651.94
2023-04-10T16:31:04.712Z,100651.27
2023-04-10T16:33:33.632Z,100645.11
2023-04-10T16:36:04.162Z,100655.33
2023-04-10T16:38:34.023Z,100654.61
2023-04-10T16:41:04.058Z,100656.39
2023-04-10T16:43:33.079Z,100657.11
2023-04-10T16:46:02.089Z,100653.56
2023-04-10T16:48:30.963Z,100654.66
2023-04-10T16:51:05.236Z,100653.77
2023-04-10T16:53:35.289Z,100650.59
2023-04-10T16:56:05.213Z,100659.29
2023-04-10T16:58:36.320Z,100653.95
2023-04-10T17:01:17.185Z,100661.10
2023-04-10T17:03:47.114Z,100664.77
2023-04-10T17:06:16.474Z,100666.02
2023-04-10T17:08:45.804Z,100665.14
2023-04-10T17:11:15.390Z,100666.92
2023-04-10T17:13:45.762Z,100667.45
2023-04-10T17:16:14.942Z,100665.98
2023-04-10T17:18:45.065Z,100670.16
2023-04-10T17:21:14.067Z,100668.97
2023-04-10T17:23:43.038Z,100672.02
2023-04-10T17:26:15.529Z,100674.04
2023-04-10T17:28:45.747Z,100676.55
2023-04-10T17:31:15.381Z,100670.30
2023-04-10T17:33:44.690Z,100681.71
2023-04-10T17:36:14.479Z,100680.81
2023-04-10T17:38:43.466Z,100682.98
2023-04-10T17:41:15.039Z,100682.89
2023-04-10T17:43:43.949Z,100686.41
2023-04-10T17:46:14.982Z,100687.95
2023-04-10T17:48:44.731Z,100688.92
2023-04-10T17:51:13.773Z,100689.98
2023-04-10T17:53:42.778Z,100691.76
2023-04-10T17:56:19.304Z,100690.39
2023-04-10T17:58:48.262Z,100694.30
2023-04-10T18:01:22.899Z,100693.73
2023-04-10T18:03:52.044Z,100688.42
2023-04-10T18:06:21.212Z,100692.42
2023-04-10T18:08:50.332Z,100690.61
2023-04-10T18:11:19.363Z,100690.36
2023-04-10T18:13:48.401Z,100692.15
2023-04-10T18:16:17.438Z,100691.09
2023-04-10T18:18:46.536Z,100693.23
2023-04-10T18:21:15.898Z,100694.86
2023-04-10T18:23:44.891Z,100695.41
2023-04-10T18:26:13.808Z,100692.73
2023-04-10T18:28:44.739Z,100694.20
2023-04-10T18:31:15.438Z,100693.33
2023-04-10T18:33:45.506Z,100693.30
2023-04-10T18:36:18.351Z,100684.64
2023-04-10T18:38:47.841Z,100693.90
2023-04-10T18:41:16.973Z,100691.56
2023-04-10T18:44:01.734Z,100687.30
2023-04-10T18:46:33.888Z,100681.29
2023-04-10T18:49:03.016Z,100679.91
2023-04-10T18:51:34.565Z,100681.23
2023-04-10T18:54:04.424Z,100680.48
2023-04-10T18:56:36.700Z,100677.27
2023-04-10T18:59:05.969Z,100676.86
2023-04-10T19:01:35.018Z,100677.33
2023-04-10T19:04:04.200Z,100678.16
2023-04-10T19:06:34.649Z,100675.66
2023-04-10T19:09:03.604Z,100677.83
2023-04-10T19:11:33.154Z,100675.19
2023-04-10T19:14:05.644Z,100676.52
2023-04-10T19:16:35.220Z,100675.39
2023-04-10T19:19:04.433Z,100670.51
2023-04-10T19:21:33.853Z,100668.30
2023-04-10T19:24:02.868Z,100668.65
2023-04-10T19:26:31.969Z,100666.45
2023-04-10T19:29:01.093Z,100667.98
2023-04-10T19:31:30.485Z,100666.58
2023-04-10T19:34:01.929Z,100667.06
2023-04-10T19:36:30.848Z,100668.42
2023-04-10T19:38:59.782Z,100669.09
2023-04-10T19:41:28.752Z,100667.86
2023-04-10T19:43:58.329Z,100668.15
2023-04-10T19:46:27.671Z,100665.51
2023-04-10T19:48:56.766Z,100665.02
2023-04-10T19:51:26.639Z,100668.02
2023-04-10T19:53:56.821Z,100665.68
2023-04-10T19:56:27.181Z,100666.20
2023-04-10T19:58:56.404Z,100660.32
2023-04-10T20:01:25.640Z,100661.58
2023-04-10T20:03:54.753Z,100662.78
2023-04-10T20:06:23.915Z,100660.37
2023-04-10T20:08:53.175Z,100659.64
2023-04-10T20:11:22.387Z,100664.98
2023-04-10T20:13:52.552Z,100665.13
2023-04-10T20:16:21.547Z,100663.32
2023-04-10T20:18:51.516Z,100657.88
2023-04-10T20:21:20.669Z,100654.09
2023-04-10T20:23:49.591Z,100655.11
2023-04-10T20:26:18.900Z,100654.23
2023-04-10T20:28:47.804Z,100654.42
2023-04-10T20:31:16.850Z,100655.05
2023-04-10T20:33:45.782Z,100645.08
2023-04-10T20:36:14.726Z,100646.05
2023-04-10T20:38:43.620Z,100645.04
2023-04-10T20:41:12.588Z,100641.13
2023-04-10T20:43:41.680Z,100639.12
2023-04-10T20:46:10.699Z,100635.10
2023-04-10T20:48:39.594Z,100630.07
2023-04-10T20:51:09.958Z,100626.99
2023-04-10T20:53:38.947Z,100624.32
2023-04-10T20:56:09.024Z,100627.25
2023-04-10T20:58:38.151Z,100622.71
2023-04-10T21:01:09.504Z,100623.50
2023-04-10T21:03:38.631Z,100620.90
2023-04-10T21:06:10.501Z,100619.29
2023-04-10T21:08:39.498Z,100619.31
2023-04-10T21:11:08.853Z,100619.22
2023-04-10T21:13:38.624Z,100616.45
2023-04-10T21:16:08.969Z,100614.30
2023-04-10T21:18:38.004Z,100611.55
2023-04-10T21:21:08.177Z,100614.52
2023-04-10T21:23:37.204Z,100612.15
2023-04-10T21:26:06.480Z,100604.83
2023-04-10T21:28:35.557Z,100602.57
2023-04-10T21:31:04.908Z,100597.91
2023-04-10T21:33:33.865Z,100600.21
2023-04-10T21:36:02.987Z,100597.89
2023-04-10T21:38:31.953Z,100597.58
2023-04-10T21:41:01.010Z,100593.17
2023-04-10T21:43:30.122Z,100586.42
2023-04-10T21:46:00.351Z,100589.86
2023-04-10T21:48:30.995Z,100587.33
2023-04-10T21:51:01.464Z,100588.19
2023-04-10T21:53:30.455Z,100587.85
2023-04-10T21:55:59.620Z,100591.89
2023-04-10T21:58:28.948Z,100586.70
2023-04-10T22:00:57.969Z,100595.65
2023-04-10T22:03:27.184Z,100592.96
2023-04-10T22:05:56.387Z,100594.14
2023-04-10T22:08:25.478Z,100591.73
2023-04-10T22:10:54.817Z,100591.83
2023-04-10T22:13:30.781Z,100595.36
2023-04-10T22:16:01.655Z,100592.36
2023-04-10T22:18:31.372Z,100592.60
2023-04-10T22:21:00.432Z,100590.66
2023-04-10T22:23:29.470Z,100591.71
2023-04-10T22:26:00.599Z,100590.00
2023-04-10T22:28:29.667Z,100589.88
2023-04-10T22:30:58.802Z,100585.05
2023-04-10T22:33:27.810Z,100584.68
2023-04-10T22:35:56.890Z,100580.42
2023-04-10T22:38:25.764Z,100575.91
2023-04-10T22:40:55.672Z,100569.48
2023-04-10T22:43:24.960Z,100569.00
2023-04-10T22:45:53.995Z,100568.99
2023-04-10T22:48:22.955Z,100562.60
2023-04-10T22:50:52.004Z,100553.07
2023-04-10T22:53:21.051Z,100554.54
2023-04-10T22:55:50.153Z,100549.66
2023-04-10T22:58:19.241Z,100544.61
2023-04-10T23:00:48.135Z,100543.09
2023-04-10T23:03:17.232Z,100539.55
2023-04-10T23:05:46.804Z,100538.99
2023-04-10T23:08:15.875Z,100534.73
2023-04-10T23:10:44.780Z,100527.15
2023-04-10T23:13:13.890Z,100523.39
2023-04-10T23:15:50.016Z,100520.11
2023-04-10T23:18:19.381Z,100516.08
2023-04-10T23:20:48.970Z,100514.17
2023-04-10T23:23:18.053Z,100511.48
2023-04-10T23:25:47.427Z,100507.98
2023-04-10T23:28:16.345Z,100506.77
2023-04-10T23:30:45.357Z,100501.84
2023-04-10T23:33:14.255Z,100500.11
2023-04-10T23:35:43.468Z,100495.83
2023-04-10T23:42:12.665Z,100487.69
2023-04-10T23:44:41.718Z,100487.81
2023-04-10T23:47:10.645Z,100488.36
2023-04-10T23:49:39.913Z,100487.49
2023-04-10T23:52:10.626Z,100484.64
2023-04-10T23:54:40.311Z,100484.48
2023-04-10T23:57:09.384Z,100480.20
2023-04-10T23:59:38.422Z,100481.17
